createdAt,value
2022-10-22T00:01:19.702Z,6.38
2022-10-22T00:03:46.470Z,6.37
2022-10-22T00:06:13.574Z,6.32
2022-10-22T00:08:40.272Z,6.27
2022-10-22T00:11:12.870Z,6.28
2022-10-22T00:13:40.174Z,6.25
2022-10-22T00:16:07.514Z,6.23
2022-10-22T00:18:34.565Z,6.23
2022-10-22T00:21:01.895Z,6.27
2022-10-22T00:23:28.697Z,6.19
2022-10-22T00:25:55.492Z,6.11
2022-10-22T00:28:22.878Z,6.07
2022-10-22T00:30:56.801Z,6.01
2022-10-22T00:33:24.473Z,5.99
2022-10-22T00:35:51.206Z,6.00
2022-10-22T00:38:18.190Z,6.05
2022-10-22T00:40:45.326Z,5.94
2022-10-22T00:43:14.851Z,5.91
2022-10-22T00:45:42.168Z,5.82
2022-10-22T00:48:12.831Z,5.77
2022-10-22T00:50:41.062Z,5.76
2022-10-22T00:53:15.270Z,5.71
2022-10-22T00:55:43.808Z,5.67
2022-10-22T00:58:12.479Z,5.64
2022-10-22T01:00:39.635Z,5.59
2022-10-22T01:03:06.415Z,5.55
2022-10-22T01:05:51.662Z,5.47
2022-10-22T01:08:36.507Z,5.41
2022-10-22T01:11:28.502Z,5.37
2022-10-22T01:14:09.725Z,5.33
2022-10-22T01:16:45.535Z,5.30
2022-10-22T01:19:39.365Z,5.29
2022-10-22T01:22:35.425Z,5.30
2022-10-22T01:25:20.277Z,5.28
2022-10-22T01:28:17.079Z,5.33
2022-10-22T01:30:46.040Z,5.32
2022-10-22T01:33:17.377Z,5.33
2022-10-22T01:35:44.908Z,5.33
2022-10-22T01:38:24.156Z,5.35
2022-10-22T01:40:51.371Z,5.38
2022-10-22T01:43:18.499Z,5.33
2022-10-22T01:45:53.450Z,5.29
2022-10-22T01:49:03.582Z,5.22
2022-10-22T01:52:13.652Z,5.12
2022-10-22T01:54:59.457Z,5.15
2022-10-22T01:57:52.900Z,5.13
2022-10-22T02:00:20.522Z,5.14
2022-10-22T02:02:53.152Z,5.12
2022-10-22T02:05:37.702Z,5.09
2022-10-22T02:08:09.504Z,5.06
2022-10-22T02:10:42.926Z,5.08
2022-10-22T02:13:15.499Z,5.03
2022-10-22T02:15:45.771Z,5.03
2022-10-22T02:18:13.784Z,5.06
2022-10-22T02:20:41.947Z,5.08
2022-10-22T02:23:09.894Z,5.12
2022-10-22T02:25:41.248Z,5.10
2022-10-22T02:28:17.126Z,5.06
2022-10-22T02:30:51.404Z,5.06
2022-10-22T02:33:21.759Z,5.05
2022-10-22T02:35:51.550Z,5.00
2022-10-22T02:38:19.275Z,4.93
2022-10-22T02:40:46.235Z,4.89
2022-10-22T02:43:12.939Z,4.86
2022-10-22T02:45:39.959Z,4.88
2022-10-22T02:48:06.763Z,4.91
2022-10-22T02:50:33.520Z,4.92
2022-10-22T02:53:00.535Z,4.87
2022-10-22T02:55:27.367Z,4.88
2022-10-22T02:57:54.201Z,4.90
2022-10-22T03:00:21.051Z,4.88
2022-10-22T03:02:47.687Z,4.84
2022-10-22T03:05:14.552Z,4.86
2022-10-22T03:07:41.360Z,4.88
2022-10-22T03:10:09.234Z,4.96
2022-10-22T03:12:35.935Z,5.06
2022-10-22T03:15:03.065Z,5.15
2022-10-22T03:17:29.779Z,5.24
2022-10-22T03:19:56.540Z,5.22
2022-10-22T03:22:31.976Z,5.21
2022-10-22T03:25:02.798Z,5.22
2022-10-22T03:27:29.920Z,5.24
2022-10-22T03:29:58.424Z,5.21
2022-10-22T03:32:25.151Z,5.15
2022-10-22T03:34:51.855Z,5.16
2022-10-22T03:37:19.377Z,5.26
2022-10-22T03:39:46.509Z,5.27
2022-10-22T03:42:13.314Z,5.29
2022-10-22T03:44:40.898Z,5.26
2022-10-22T03:47:08.014Z,5.24
2022-10-22T03:49:35.050Z,5.19
2022-10-22T03:52:10.678Z,5.17
2022-10-22T03:57:06.659Z,5.15
2022-10-22T03:59:38.575Z,5.10
2022-10-22T04:02:05.887Z,5.13
2022-10-22T04:04:32.848Z,5.17
2022-10-22T04:06:59.626Z,5.20
2022-10-22T04:09:26.281Z,5.16
2022-10-22T04:11:53.164Z,5.14
2022-10-22T04:14:19.982Z,5.08
2022-10-22T04:16:46.698Z,5.06
2022-10-22T04:19:14.038Z,5.05
2022-10-22T04:21:41.430Z,4.98
2022-10-22T04:24:08.297Z,4.90
2022-10-22T04:26:35.504Z,4.90
2022-10-22T04:29:02.819Z,4.95
2022-10-22T04:31:29.575Z,5.00
2022-10-22T04:33:58.893Z,4.99
2022-10-22T04:36:26.764Z,4.99
2022-10-22T04:38:59.994Z,5.03
2022-10-22T04:41:29.933Z,5.06
2022-10-22T04:43:57.241Z,5.01
2022-10-22T04:46:26.037Z,4.98
2022-10-22T04:48:52.888Z,4.96
2022-10-22T04:51:23.134Z,4.94
2022-10-22T04:53:50.371Z,4.92
2022-10-22T04:56:21.428Z,4.91
2022-10-22T04:58:50.324Z,4.89
2022-10-22T05:01:23.031Z,4.84
2022-10-22T05:03:52.304Z,4.81
2022-10-22T05:06:20.369Z,4.75
2022-10-22T05:08:48.559Z,4.72
2022-10-22T05:11:21.567Z,4.68
2022-10-22T05:13:48.257Z,4.70
2022-10-22T05:16:14.979Z,4.77
2022-10-22T05:18:43.808Z,4.84
2022-10-22T05:21:16.400Z,4.88
2022-10-22T05:23:44.267Z,4.91
2022-10-22T05:26:13.273Z,4.94
2022-10-22T05:28:40.456Z,4.99
2022-10-22T05:31:10.342Z,5.02
2022-10-22T05:33:37.532Z,5.07
2022-10-22T05:36:06.701Z,5.09
2022-10-22T05:38:35.294Z,5.15
2022-10-22T05:41:09.497Z,5.37
2022-10-22T05:43:37.413Z,5.74
2022-10-22T05:46:07.269Z,5.98
2022-10-22T05:48:34.535Z,6.45
2022-10-22T05:51:04.970Z,7.10
2022-10-22T05:53:37.397Z,7.66
2022-10-22T05:56:13.349Z,8.22
2022-10-22T05:58:40.194Z,8.78
2022-10-22T06:01:21.625Z,9.27
2022-10-22T06:03:49.164Z,9.78
2022-10-22T06:06:36.526Z,10.32
2022-10-22T06:09:10.829Z,10.73
2022-10-22T06:11:37.628Z,11.27
2022-10-22T06:14:05.640Z,11.48
2022-10-22T06:16:33.626Z,11.74
2022-10-22T06:19:04.007Z,12.13
2022-10-22T06:21:33.609Z,12.55
2022-10-22T06:24:01.810Z,13.15
2022-10-22T06:26:29.380Z,13.22
2022-10-22T06:28:57.665Z,13.54
2022-10-22T06:31:26.368Z,14.26
2022-10-22T06:33:54.094Z,14.58
2022-10-22T06:36:23.871Z,14.96
2022-10-22T06:38:53.018Z,15.55
2022-10-22T06:41:24.385Z,15.75
2022-10-22T06:43:55.367Z,16.27
2022-10-22T06:46:25.127Z,16.69
2022-10-22T06:48:57.955Z,17.13
2022-10-22T06:51:27.285Z,17.55
2022-10-22T06:53:56.258Z,18.03
2022-10-22T06:56:29.561Z,18.49
2022-10-22T06:58:58.273Z,19.11
2022-10-22T07:01:31.706Z,19.27
2022-10-22T07:04:01.570Z,19.72
2022-10-22T07:06:32.580Z,20.04
2022-10-22T07:09:00.921Z,20.08
2022-10-22T07:11:32.426Z,20.13
2022-10-22T07:13:59.887Z,20.42
2022-10-22T07:16:31.192Z,20.05
2022-10-22T07:19:00.969Z,19.44
2022-10-22T07:21:29.103Z,18.65
2022-10-22T07:23:56.936Z,18.15
2022-10-22T07:26:27.591Z,17.70
2022-10-22T07:28:55.257Z,17.51
2022-10-22T07:31:22.702Z,17.40
2022-10-22T07:33:50.256Z,17.24
2022-10-22T07:36:18.342Z,17.10
2022-10-22T07:38:48.812Z,16.78
2022-10-22T07:41:17.117Z,16.50
2022-10-22T07:43:44.353Z,16.32
2022-10-22T07:46:11.952Z,16.28
2022-10-22T07:48:40.218Z,16.26
2022-10-22T07:51:07.788Z,16.42
2022-10-22T07:53:35.143Z,17.10
2022-10-22T07:56:02.106Z,17.40
2022-10-22T07:58:29.717Z,17.37
2022-10-22T08:01:00.512Z,17.36
2022-10-22T08:03:29.446Z,17.77
2022-10-22T08:06:00.745Z,18.86
2022-10-22T08:08:30.694Z,19.97
2022-10-22T08:11:01.542Z,20.13
2022-10-22T08:13:32.603Z,20.18
2022-10-22T08:16:00.884Z,20.46
2022-10-22T08:18:28.949Z,20.51
2022-10-22T08:20:57.176Z,21.10
2022-10-22T08:23:28.711Z,21.79
2022-10-22T08:25:57.045Z,22.06
2022-10-22T08:28:25.568Z,21.66
2022-10-22T08:30:54.907Z,21.25
2022-10-22T08:33:24.551Z,21.20
2022-10-22T08:35:52.417Z,21.71
2022-10-22T08:38:19.836Z,22.00
2022-10-22T08:40:51.172Z,22.12
2022-10-22T08:43:37.190Z,22.84
2022-10-22T08:46:10.644Z,22.78
2022-10-22T08:48:52.284Z,22.71
2022-10-22T08:51:24.449Z,22.88
2022-10-22T08:54:06.143Z,23.25
2022-10-22T08:56:36.149Z,23.38
2022-10-22T08:59:26.655Z,23.18
2022-10-22T09:01:57.615Z,22.30
2022-10-22T09:04:31.299Z,22.56
2022-10-22T09:07:00.080Z,22.98
2022-10-22T09:09:33.006Z,22.57
2022-10-22T09:12:02.117Z,21.97
2022-10-22T09:14:29.527Z,21.02
2022-10-22T09:17:14.295Z,20.64
2022-10-22T09:20:15.847Z,20.42
2022-10-22T09:22:59.235Z,20.21
2022-10-22T09:25:29.063Z,19.67
2022-10-22T09:27:59.553Z,19.60
2022-10-22T09:30:32.580Z,19.78
2022-10-22T09:33:08.305Z,19.85
2022-10-22T09:35:58.279Z,19.94
2022-10-22T09:38:29.754Z,19.68
2022-10-22T09:40:59.599Z,19.84
2022-10-22T09:43:27.502Z,20.28
2022-10-22T09:46:05.194Z,20.57
2022-10-22T09:48:40.895Z,21.90
2022-10-22T09:51:18.250Z,22.56
2022-10-22T09:53:55.693Z,22.70
2022-10-22T09:56:27.347Z,23.05
2022-10-22T09:58:57.062Z,23.50
2022-10-22T10:01:30.761Z,23.41
2022-10-22T10:04:09.926Z,23.87
2022-10-22T10:06:39.789Z,24.05
2022-10-22T10:09:19.919Z,24.34
2022-10-22T10:12:05.828Z,24.48
2022-10-22T10:14:54.423Z,24.49
2022-10-22T10:17:44.844Z,25.71
2022-10-22T10:20:35.782Z,26.46
2022-10-22T10:23:35.397Z,26.56
2022-10-22T10:26:13.330Z,26.79
2022-10-22T10:28:46.248Z,26.63
2022-10-22T10:31:38.287Z,27.15
2022-10-22T10:34:36.223Z,27.49
2022-10-22T10:37:09.139Z,27.38
2022-10-22T10:39:59.492Z,27.90
2022-10-22T10:42:40.689Z,28.14
2022-10-22T10:45:44.407Z,29.21
2022-10-22T10:48:21.681Z,29.92
2022-10-22T10:51:08.070Z,30.07
2022-10-22T10:54:11.963Z,30.27
2022-10-22T10:56:44.132Z,30.03
2022-10-22T10:59:26.817Z,29.80
2022-10-22T11:02:08.618Z,29.26
2022-10-22T11:04:50.425Z,28.12
2022-10-22T11:07:34.247Z,27.18
2022-10-22T11:10:40.914Z,27.48
2022-10-22T11:13:22.614Z,27.98
2022-10-22T11:16:09.014Z,27.65
2022-10-22T11:18:42.057Z,27.54
2022-10-22T11:21:26.633Z,27.38
2022-10-22T11:23:57.961Z,26.53
2022-10-22T11:26:52.585Z,25.59
2022-10-22T11:29:27.231Z,24.89
2022-10-22T11:31:56.957Z,24.33
2022-10-22T11:34:48.041Z,23.85
2022-10-22T11:37:16.193Z,23.07
2022-10-22T11:39:48.688Z,22.54
2022-10-22T11:42:20.913Z,22.27
2022-10-22T11:44:49.495Z,22.02
2022-10-22T11:47:25.044Z,21.55
2022-10-22T11:49:58.983Z,21.33
2022-10-22T11:52:31.783Z,21.22
2022-10-22T11:55:02.079Z,21.08
2022-10-22T11:57:39.070Z,20.98
2022-10-22T12:00:30.599Z,20.81
2022-10-22T12:03:17.457Z,20.61
2022-10-22T12:05:46.074Z,20.46
2022-10-22T12:08:20.494Z,20.35
2022-10-22T12:11:03.490Z,20.15
2022-10-22T12:13:34.123Z,19.97
2022-10-22T12:16:04.855Z,19.80
2022-10-22T12:18:40.880Z,19.62
2022-10-22T12:21:13.574Z,19.43
2022-10-22T12:23:41.098Z,19.32
2022-10-22T12:26:23.180Z,19.20
2022-10-22T12:28:49.888Z,19.08
2022-10-22T12:31:17.137Z,18.99
2022-10-22T12:33:43.870Z,18.92
2022-10-22T12:36:18.033Z,18.80
2022-10-22T12:38:47.673Z,18.70
2022-10-22T12:41:14.888Z,18.61
2022-10-22T12:43:41.683Z,18.53
2022-10-22T12:46:13.228Z,18.46
2022-10-22T12:48:43.585Z,18.40
2022-10-22T12:51:19.961Z,18.32
2022-10-22T12:53:53.898Z,18.26
2022-10-22T12:56:27.034Z,18.21
2022-10-22T12:59:03.451Z,18.14
2022-10-22T13:01:38.854Z,18.08
2022-10-22T13:04:21.314Z,18.01
2022-10-22T13:07:03.065Z,17.93
2022-10-22T13:09:42.140Z,17.86
2022-10-22T13:12:15.627Z,17.78
2022-10-22T13:14:44.791Z,17.71
2022-10-22T13:17:18.860Z,17.64
2022-10-22T13:19:48.579Z,17.57
2022-10-22T13:22:26.346Z,17.51
2022-10-22T13:24:53.650Z,17.47
2022-10-22T13:27:20.352Z,17.46
2022-10-22T13:29:47.058Z,17.42
2022-10-22T13:32:33.683Z,17.40
2022-10-22T13:35:02.848Z,17.36
2022-10-22T13:37:31.838Z,17.36
2022-10-22T13:39:58.605Z,17.36
2022-10-22T13:42:25.487Z,17.36
2022-10-22T13:44:52.164Z,17.38
2022-10-22T13:47:27.305Z,17.41
2022-10-22T13:49:57.817Z,17.44
2022-10-22T13:52:27.994Z,17.46
2022-10-22T13:54:54.659Z,17.48
2022-10-22T13:57:21.367Z,17.49
2022-10-22T13:59:48.281Z,17.49
2022-10-22T14:02:15.847Z,17.49
2022-10-22T14:04:43.565Z,17.48
2022-10-22T14:07:14.200Z,17.46
2022-10-22T14:09:41.149Z,17.43
2022-10-22T14:12:16.550Z,17.40
2022-10-22T14:14:43.459Z,17.38
2022-10-22T14:17:16.237Z,17.37
2022-10-22T14:19:48.806Z,17.33
2022-10-22T14:22:19.950Z,17.27
2022-10-22T14:24:46.693Z,17.24
2022-10-22T14:27:14.995Z,17.18
2022-10-22T14:29:41.773Z,17.12
2022-10-22T14:32:13.696Z,17.05
2022-10-22T14:34:40.889Z,16.99
2022-10-22T14:37:19.756Z,16.93
2022-10-22T14:39:51.301Z,16.86
2022-10-22T14:42:19.418Z,16.82
2022-10-22T14:44:46.489Z,16.77
2022-10-22T14:47:13.259Z,16.73
2022-10-22T14:49:40.002Z,16.68
2022-10-22T14:52:09.539Z,16.64
2022-10-22T14:54:38.510Z,16.62
2022-10-22T14:57:05.418Z,16.59
2022-10-22T14:59:32.175Z,16.57
2022-10-22T15:01:59.011Z,16.54
2022-10-22T15:04:26.693Z,16.49
2022-10-22T15:06:55.839Z,16.46
2022-10-22T15:09:23.605Z,16.41
2022-10-22T15:11:51.010Z,16.37
2022-10-22T15:14:17.947Z,16.31
2022-10-22T15:16:44.754Z,16.24
2022-10-22T15:19:11.758Z,16.16
2022-10-22T15:21:38.679Z,16.11
2022-10-22T15:24:05.696Z,16.06
2022-10-22T15:26:33.145Z,16.01
2022-10-22T15:29:02.458Z,15.96
2022-10-22T15:31:54.081Z,15.92
2022-10-22T15:34:24.606Z,15.88
2022-10-22T15:36:54.340Z,15.83
2022-10-22T15:39:22.321Z,15.79
2022-10-22T15:41:50.678Z,15.75
2022-10-22T15:44:21.261Z,15.68
2022-10-22T15:49:27.639Z,15.54
2022-10-22T15:51:54.760Z,15.46
2022-10-22T15:54:25.144Z,15.37
2022-10-22T15:56:51.962Z,15.30
2022-10-22T15:59:18.776Z,15.23
2022-10-22T16:01:45.735Z,15.16
2022-10-22T16:04:12.639Z,15.13
2022-10-22T16:06:39.262Z,15.11
2022-10-22T16:09:12.303Z,15.06
2022-10-22T16:11:39.751Z,15.04
2022-10-22T16:14:07.924Z,15.05
2022-10-22T16:16:38.838Z,15.02
2022-10-22T16:19:06.485Z,14.99
2022-10-22T16:21:33.629Z,14.97
2022-10-22T16:24:05.950Z,14.96
2022-10-22T16:26:34.460Z,14.92
2022-10-22T16:29:01.541Z,14.91
2022-10-22T16:31:28.447Z,14.91
2022-10-22T16:33:55.734Z,14.94
2022-10-22T16:36:22.787Z,14.96
2022-10-22T16:38:49.963Z,15.00
2022-10-22T16:41:24.753Z,15.02
2022-10-22T16:43:54.689Z,15.03
2022-10-22T16:46:22.589Z,15.03
2022-10-22T16:48:51.468Z,15.03
2022-10-22T16:51:22.732Z,15.01
2022-10-22T16:53:54.583Z,14.98
2022-10-22T16:56:21.846Z,14.97
2022-10-22T16:58:51.205Z,14.94
2022-10-22T17:01:20.550Z,14.93
2022-10-22T17:03:47.262Z,14.92
2022-10-22T17:06:14.521Z,14.91
2022-10-22T17:08:42.107Z,14.90
2022-10-22T17:11:16.891Z,14.90
2022-10-22T17:13:46.293Z,14.91
2022-10-22T17:16:15.446Z,14.92
2022-10-22T17:21:14.253Z,14.95
2022-10-22T17:23:42.047Z,14.97
2022-10-22T17:26:17.272Z,15.00
2022-10-22T17:28:44.553Z,15.02
2022-10-22T17:31:36.905Z,15.04
2022-10-22T17:34:06.382Z,15.06
2022-10-22T17:36:35.895Z,15.09
2022-10-22T17:39:06.598Z,15.11
2022-10-22T17:41:36.305Z,15.15
2022-10-22T17:44:05.786Z,15.18
2022-10-22T17:46:32.768Z,15.21
2022-10-22T17:49:07.683Z,15.24
2022-10-22T17:51:34.596Z,15.27
2022-10-22T17:54:03.460Z,15.28
2022-10-22T17:56:32.884Z,15.30
2022-10-22T17:58:59.643Z,15.30
2022-10-22T18:01:29.169Z,15.30
2022-10-22T18:04:00.763Z,15.29
2022-10-22T18:06:28.076Z,15.27
2022-10-22T18:08:55.143Z,15.24
2022-10-22T18:11:24.571Z,15.17
2022-10-22T18:13:53.540Z,15.12
2022-10-22T18:16:20.342Z,15.05
2022-10-22T18:18:52.818Z,14.99
2022-10-22T18:21:20.546Z,14.93
2022-10-22T18:23:47.547Z,14.91
2022-10-22T18:26:15.535Z,14.89
2022-10-22T18:28:42.193Z,14.83
2022-10-22T18:31:15.301Z,14.77
2022-10-22T18:33:42.041Z,14.72
2022-10-22T18:36:11.347Z,14.69
2022-10-22T18:38:38.945Z,14.67
2022-10-22T18:41:07.934Z,14.65
2022-10-22T18:43:35.706Z,14.64
2022-10-22T18:46:06.084Z,14.63
2022-10-22T18:48:34.298Z,14.59
2022-10-22T18:51:06.710Z,14.59
2022-10-22T18:53:34.942Z,14.59
2022-10-22T18:56:04.596Z,14.58
2022-10-22T18:58:31.371Z,14.52
2022-10-22T19:00:58.113Z,14.49
2022-10-22T19:03:24.750Z,14.47
2022-10-22T19:05:53.310Z,14.42
2022-10-22T19:08:19.983Z,14.37
2022-10-22T19:10:47.570Z,14.32
2022-10-22T19:13:16.835Z,14.31
2022-10-22T19:15:43.929Z,14.31
2022-10-22T19:18:12.461Z,14.34
2022-10-22T19:20:39.146Z,14.36
2022-10-22T19:23:06.970Z,14.38
2022-10-22T19:25:34.862Z,14.39
2022-10-22T19:28:01.486Z,14.41
2022-10-22T19:30:28.177Z,14.42
2022-10-22T19:32:54.974Z,14.43
2022-10-22T19:35:22.009Z,14.45
2022-10-22T19:37:48.966Z,14.48
2022-10-22T19:40:15.789Z,14.52
2022-10-22T19:42:46.404Z,14.55
2022-10-22T19:45:13.051Z,14.57
2022-10-22T19:47:41.608Z,14.57
2022-10-22T19:50:08.460Z,14.56
2022-10-22T19:52:35.210Z,14.55
2022-10-22T19:55:01.961Z,14.54
2022-10-22T19:57:29.642Z,14.50
2022-10-22T19:59:56.382Z,14.45
2022-10-22T20:02:23.037Z,14.41
2022-10-22T20:04:50.106Z,14.39
2022-10-22T20:07:17.162Z,14.37
2022-10-22T20:09:43.940Z,14.34
2022-10-22T20:12:10.728Z,14.30
2022-10-22T20:14:37.592Z,14.27
2022-10-22T20:17:04.428Z,14.24
2022-10-22T20:19:32.343Z,14.20
2022-10-22T20:24:30.646Z,14.14
2022-10-22T20:26:57.349Z,14.14
2022-10-22T20:29:24.350Z,14.12
2022-10-22T20:31:51.338Z,14.07
2022-10-22T20:34:18.175Z,14.04
2022-10-22T20:36:45.170Z,14.00
2022-10-22T20:39:14.870Z,13.95
2022-10-22T20:41:41.896Z,13.89
2022-10-22T20:44:15.686Z,13.86
2022-10-22T20:46:43.001Z,13.85
2022-10-22T20:49:13.192Z,13.83
2022-10-22T20:51:39.941Z,13.80
2022-10-22T20:54:08.255Z,13.79
2022-10-22T20:56:37.313Z,13.74
2022-10-22T20:59:05.366Z,13.69
2022-10-22T21:01:39.577Z,13.65
2022-10-22T21:04:06.804Z,13.62
2022-10-22T21:06:37.386Z,13.58
2022-10-22T21:09:06.440Z,13.58
2022-10-22T21:11:33.880Z,13.54
2022-10-22T21:14:00.735Z,13.51
2022-10-22T21:16:27.586Z,13.51
2022-10-22T21:18:55.302Z,13.48
2022-10-22T21:21:22.669Z,13.46
2022-10-22T21:23:52.740Z,13.45
2022-10-22T21:26:19.842Z,13.44
2022-10-22T21:28:46.998Z,13.43
2022-10-22T21:31:20.934Z,13.43
2022-10-22T21:33:49.721Z,13.43
2022-10-22T21:36:21.597Z,13.42
2022-10-22T21:38:51.236Z,13.37
2022-10-22T21:41:21.033Z,13.37
2022-10-22T21:43:48.801Z,13.40
2022-10-22T21:46:18.646Z,13.42
2022-10-22T21:48:45.570Z,13.46
2022-10-22T21:51:17.907Z,13.47
2022-10-22T21:53:45.846Z,13.46
2022-10-22T21:56:21.246Z,13.49
2022-10-22T21:58:47.908Z,13.48
2022-10-22T22:01:15.702Z,13.47
2022-10-22T22:03:45.226Z,13.45
2022-10-22T22:06:12.664Z,13.42
2022-10-22T22:08:39.933Z,13.41
2022-10-22T22:11:10.566Z,13.39
2022-10-22T22:13:37.595Z,13.38
2022-10-22T22:16:07.449Z,13.39
2022-10-22T22:18:35.043Z,13.38
2022-10-22T22:21:08.021Z,13.38
2022-10-22T22:23:39.963Z,13.39
2022-10-22T22:26:07.391Z,13.39
2022-10-22T22:28:34.878Z,13.37
2022-10-22T22:31:10.581Z,13.37
2022-10-22T22:33:37.361Z,13.38
2022-10-22T22:36:04.485Z,13.39
2022-10-22T22:38:31.222Z,13.39
2022-10-22T22:40:59.464Z,13.38
2022-10-22T22:43:26.189Z,13.38
2022-10-22T22:46:07.275Z,13.33
2022-10-22T22:48:34.523Z,13.29
2022-10-22T22:51:03.394Z,13.28
2022-10-22T22:53:30.372Z,13.27
2022-10-22T22:56:20.879Z,13.25
2022-10-22T22:58:48.003Z,13.19
2022-10-22T23:01:25.631Z,13.19
2022-10-22T23:03:53.965Z,13.19
2022-10-22T23:06:21.981Z,13.16
2022-10-22T23:08:50.409Z,13.13
2022-10-22T23:11:17.720Z,13.11
2022-10-22T23:13:45.121Z,13.06
2022-10-22T23:16:18.571Z,13.02
2022-10-22T23:18:47.753Z,12.99
2022-10-22T23:21:24.158Z,12.94
2022-10-22T23:23:54.084Z,12.89
2022-10-22T23:26:26.649Z,12.83
2022-10-22T23:28:53.818Z,12.78
2022-10-22T23:31:21.213Z,12.74
2022-10-22T23:33:48.548Z,12.72
2022-10-22T23:36:15.528Z,12.71
2022-10-22T23:38:43.333Z,12.68
2022-10-22T23:41:10.558Z,12.67
2022-10-22T23:43:38.301Z,12.68
2022-10-22T23:46:06.800Z,12.67
2022-10-22T23:48:34.091Z,12.71
2022-10-22T23:51:08.245Z,12.68
2022-10-22T23:53:35.386Z,12.67
2022-10-22T23:56:12.111Z,12.68
2022-10-22T23:58:39.080Z,12.68
